createdAt,value
2022-12-19T00:00:14.749Z,88.50
2022-12-19T00:01:26.856Z,88.20
2022-12-19T00:02:32.733Z,84.76
2022-12-19T00:03:39.463Z,86.36
2022-12-19T00:04:42.853Z,84.54
2022-12-19T00:05:48.876Z,84.30
2022-12-19T00:06:52.165Z,84.73
2022-12-19T00:07:59.034Z,82.72
2022-12-19T00:09:06.853Z,83.85
2022-12-19T00:10:13.534Z,86.44
2022-12-19T00:11:18.952Z,87.08
2022-12-19T00:12:24.804Z,85.73
2022-12-19T00:13:35.288Z,84.01
2022-12-19T00:14:50.735Z,84.84
2022-12-19T00:15:54.545Z,85.50
2022-12-19T00:17:00.431Z,86.53
2022-12-19T00:18:05.677Z,88.75
2022-12-19T00:19:15.784Z,89.16
2022-12-19T00:20:19.471Z,86.48
2022-12-19T00:21:28.414Z,86.77
2022-12-19T00:22:31.757Z,88.58
2022-12-19T00:23:38.839Z,88.25
2022-12-19T00:24:42.915Z,88.66
2022-12-19T00:25:48.847Z,88.60
2022-12-19T00:26:52.131Z,91.20
2022-12-19T00:27:58.639Z,89.37
2022-12-19T00:29:11.164Z,88.97
2022-12-19T00:30:24.115Z,91.83
2022-12-19T00:31:31.630Z,93.51
2022-12-19T00:32:37.764Z,91.29
2022-12-19T00:33:43.401Z,89.03
2022-12-19T00:34:51.000Z,93.09
2022-12-19T00:35:59.098Z,92.36
2022-12-19T00:37:05.011Z,92.47
2022-12-19T00:38:08.417Z,91.63
2022-12-19T00:39:14.698Z,92.99
2022-12-19T00:40:18.427Z,95.89
2022-12-19T00:41:28.398Z,93.27
2022-12-19T00:42:32.338Z,92.45
2022-12-19T00:43:38.532Z,93.18
2022-12-19T00:44:42.002Z,90.71
2022-12-19T00:45:50.666Z,93.45
2022-12-19T00:46:54.907Z,96.07
2022-12-19T00:48:00.801Z,91.19
2022-12-19T00:49:06.535Z,88.05
2022-12-19T00:50:13.801Z,89.94
2022-12-19T00:51:21.335Z,91.61
2022-12-19T00:52:28.092Z,90.46
2022-12-19T00:53:34.827Z,91.21
2022-12-19T00:54:42.096Z,91.06
2022-12-19T00:55:45.337Z,89.42
2022-12-19T00:56:51.351Z,87.93
2022-12-19T00:57:55.550Z,86.92
2022-12-19T00:59:05.884Z,87.18
2022-12-19T01:00:12.099Z,87.60
2022-12-19T01:01:24.652Z,87.51
2022-12-19T01:02:30.761Z,86.65
2022-12-19T01:03:35.239Z,87.29
2022-12-19T01:04:41.962Z,89.47
2022-12-19T01:05:51.027Z,86.66
2022-12-19T01:07:01.758Z,88.95
2022-12-19T01:08:09.208Z,90.33
2022-12-19T01:09:16.514Z,87.85
2022-12-19T01:10:19.966Z,85.70
2022-12-19T01:11:46.694Z,85.78
2022-12-19T01:12:49.973Z,84.02
2022-12-19T01:13:54.684Z,85.18
2022-12-19T01:15:04.899Z,85.94
2022-12-19T01:16:15.168Z,86.92
2022-12-19T01:17:21.157Z,84.39
2022-12-19T01:18:27.096Z,84.23
2022-12-19T01:19:30.566Z,82.66
2022-12-19T01:20:37.287Z,85.39
2022-12-19T01:21:41.033Z,83.33
2022-12-19T01:22:47.877Z,82.93
2022-12-19T01:23:51.187Z,83.54
2022-12-19T01:24:57.091Z,82.33
2022-12-19T01:26:01.357Z,84.14
2022-12-19T01:27:07.494Z,84.01
2022-12-19T01:28:18.261Z,84.97
2022-12-19T01:29:22.275Z,84.57
2022-12-19T01:30:29.256Z,86.02
2022-12-19T01:31:35.108Z,85.84
2022-12-19T01:32:44.706Z,87.17
2022-12-19T01:33:48.120Z,85.19
2022-12-19T01:34:56.404Z,85.45
2022-12-19T01:36:02.033Z,82.85
2022-12-19T01:37:08.877Z,85.52
2022-12-19T01:38:15.615Z,83.40
2022-12-19T01:39:21.525Z,82.93
2022-12-19T01:40:30.247Z,81.69
2022-12-19T01:41:33.869Z,82.24
2022-12-19T01:42:41.210Z,83.28
2022-12-19T01:44:02.075Z,83.54
2022-12-19T01:45:34.077Z,84.05
2022-12-19T01:46:47.649Z,86.93
2022-12-19T01:48:07.739Z,84.06
2022-12-19T01:49:25.278Z,83.46
2022-12-19T01:50:38.081Z,82.35
2022-12-19T01:51:54.375Z,83.16
2022-12-19T01:53:01.421Z,81.86
2022-12-19T01:54:15.535Z,85.91
2022-12-19T01:55:22.082Z,85.01
2022-12-19T01:56:37.429Z,85.92
2022-12-19T01:57:40.876Z,84.73
2022-12-19T01:58:49.000Z,87.19
2022-12-19T02:00:00.198Z,85.80
2022-12-19T02:01:06.666Z,89.06
2022-12-19T02:02:19.452Z,86.28
2022-12-19T02:03:32.709Z,84.78
2022-12-19T02:04:37.485Z,88.62
2022-12-19T02:05:44.617Z,86.18
2022-12-19T02:06:56.484Z,88.56
2022-12-19T02:08:05.985Z,90.28
2022-12-19T02:09:10.197Z,88.28
2022-12-19T02:10:17.025Z,89.02
2022-12-19T02:11:20.504Z,89.87
2022-12-19T02:12:33.246Z,90.11
2022-12-19T02:13:36.835Z,90.50
2022-12-19T02:14:44.623Z,90.82
2022-12-19T02:16:05.927Z,95.65
2022-12-19T02:17:27.951Z,91.26
2022-12-19T02:18:52.181Z,91.49
2022-12-19T02:20:48.445Z,92.48
2022-12-19T02:22:12.712Z,93.41
2022-12-19T02:24:10.984Z,94.14
2022-12-19T02:26:03.655Z,90.75
2022-12-19T02:28:01.083Z,86.93
2022-12-19T02:29:43.997Z,88.91
2022-12-19T02:31:17.499Z,92.32
2022-12-19T02:32:36.302Z,88.79
2022-12-19T02:33:49.557Z,88.89
2022-12-19T02:35:11.279Z,90.07
2022-12-19T02:36:28.580Z,89.12
2022-12-19T02:37:44.831Z,88.40
2022-12-19T02:39:02.400Z,88.04
2022-12-19T02:40:18.550Z,89.20
2022-12-19T02:41:43.519Z,87.59
2022-12-19T02:43:00.968Z,88.14
2022-12-19T02:44:08.865Z,87.15
2022-12-19T02:45:28.337Z,87.19
2022-12-19T02:46:37.869Z,85.52
2022-12-19T02:47:43.396Z,86.32
2022-12-19T02:48:51.635Z,84.64
2022-12-19T02:49:55.084Z,84.17
2022-12-19T02:51:01.421Z,84.88
2022-12-19T02:52:13.303Z,83.31
2022-12-19T02:53:23.805Z,84.66
2022-12-19T02:54:33.031Z,84.78
2022-12-19T02:55:51.746Z,82.75
2022-12-19T02:57:09.174Z,83.26
2022-12-19T02:58:46.684Z,85.74
2022-12-19T03:00:06.768Z,84.23
2022-12-19T03:01:36.635Z,84.20
2022-12-19T03:03:01.183Z,83.78
2022-12-19T03:04:24.343Z,83.65
2022-12-19T03:05:45.662Z,81.52
2022-12-19T03:07:02.101Z,86.44
2022-12-19T03:08:23.964Z,84.08
2022-12-19T03:09:43.952Z,83.52
2022-12-19T03:11:00.758Z,82.63
2022-12-19T03:12:18.362Z,80.54
2022-12-19T03:13:30.584Z,82.21
2022-12-19T03:14:40.293Z,82.63
2022-12-19T03:15:45.448Z,82.86
2022-12-19T03:16:54.396Z,83.15
2022-12-19T03:18:02.883Z,85.21
2022-12-19T03:19:16.535Z,85.78
2022-12-19T03:20:37.353Z,83.15
2022-12-19T03:21:47.783Z,82.32
2022-12-19T03:22:51.866Z,81.00
2022-12-19T03:24:01.408Z,82.77
2022-12-19T03:25:05.608Z,85.20
2022-12-19T03:26:20.757Z,86.16
2022-12-19T03:27:34.285Z,82.68
2022-12-19T03:28:50.981Z,83.07
2022-12-19T03:30:06.849Z,82.88
2022-12-19T03:31:15.852Z,86.21
2022-12-19T03:32:25.601Z,83.30
2022-12-19T03:33:35.074Z,83.80
2022-12-19T03:34:50.910Z,83.38
2022-12-19T03:36:04.610Z,87.45
2022-12-19T03:37:20.351Z,85.71
2022-12-19T03:38:24.476Z,85.14
2022-12-19T03:39:35.202Z,83.36
2022-12-19T03:40:46.465Z,82.65
2022-12-19T03:42:07.867Z,85.64
2022-12-19T03:43:21.665Z,87.29
2022-12-19T03:44:34.849Z,87.05
2022-12-19T03:45:56.599Z,84.65
2022-12-19T03:47:15.120Z,86.17
2022-12-19T03:48:30.970Z,85.47
2022-12-19T03:49:38.253Z,87.10
2022-12-19T03:51:00.375Z,86.74
2022-12-19T03:52:24.855Z,87.37
2022-12-19T03:53:50.275Z,86.68
2022-12-19T03:55:06.326Z,85.54
2022-12-19T03:56:25.883Z,88.15
2022-12-19T03:57:40.203Z,87.84
2022-12-19T03:58:56.247Z,86.29
2022-12-19T04:00:08.166Z,87.13
2022-12-19T04:01:22.650Z,87.24
2022-12-19T04:02:29.365Z,87.56
2022-12-19T04:03:37.020Z,87.72
2022-12-19T04:04:53.677Z,85.89
2022-12-19T04:06:02.127Z,84.55
2022-12-19T04:07:12.019Z,86.60
2022-12-19T04:08:17.922Z,84.75
2022-12-19T04:09:27.431Z,83.91
2022-12-19T04:10:36.153Z,87.08
2022-12-19T04:11:52.588Z,86.03
2022-12-19T04:13:05.309Z,84.11
2022-12-19T04:14:20.124Z,84.99
2022-12-19T04:15:45.255Z,85.61
2022-12-19T04:16:59.820Z,86.70
2022-12-19T04:18:12.845Z,87.48
2022-12-19T04:19:29.614Z,85.09
2022-12-19T04:20:48.645Z,84.81
2022-12-19T04:22:05.000Z,87.01
2022-12-19T04:23:24.535Z,87.32
2022-12-19T04:24:36.647Z,87.22
2022-12-19T04:25:52.281Z,86.12
2022-12-19T04:27:02.564Z,88.19
2022-12-19T04:28:16.779Z,87.46
2022-12-19T04:29:21.570Z,88.19
2022-12-19T04:30:27.458Z,85.04
2022-12-19T04:31:32.666Z,87.94
2022-12-19T04:32:43.143Z,87.14
2022-12-19T04:33:46.725Z,92.01
2022-12-19T04:34:52.616Z,94.35
2022-12-19T04:35:58.857Z,95.45
2022-12-19T04:37:06.754Z,95.13
2022-12-19T04:38:10.230Z,98.05
2022-12-19T04:39:16.271Z,102.52
2022-12-19T04:40:19.713Z,102.51
2022-12-19T04:41:25.613Z,100.36
2022-12-19T04:42:29.856Z,108.78
2022-12-19T04:43:36.063Z,109.72
2022-12-19T04:44:39.367Z,103.66
2022-12-19T04:45:45.552Z,96.30
2022-12-19T04:46:49.370Z,96.44
2022-12-19T04:47:56.067Z,98.06
2022-12-19T04:48:59.390Z,98.00
2022-12-19T04:50:05.557Z,102.57
2022-12-19T04:51:11.477Z,101.99
2022-12-19T04:52:17.402Z,101.64
2022-12-19T04:53:21.524Z,102.57
2022-12-19T04:54:27.380Z,104.46
2022-12-19T04:55:30.927Z,105.11
2022-12-19T04:56:36.829Z,107.98
2022-12-19T04:57:40.078Z,106.76
2022-12-19T04:58:46.805Z,106.69
2022-12-19T04:59:50.444Z,106.56
2022-12-19T05:00:56.310Z,115.98
2022-12-19T05:02:00.735Z,123.74
2022-12-19T05:03:06.881Z,123.76
2022-12-19T05:04:11.193Z,123.56
2022-12-19T05:05:18.412Z,120.88
2022-12-19T05:06:24.459Z,117.04
2022-12-19T05:07:30.479Z,113.37
2022-12-19T05:08:34.461Z,112.53
2022-12-19T05:09:41.327Z,112.47
2022-12-19T05:10:44.593Z,110.94
2022-12-19T05:11:50.987Z,111.00
2022-12-19T05:12:55.580Z,121.48
2022-12-19T05:14:02.406Z,124.78
2022-12-19T05:15:08.848Z,112.65
2022-12-19T05:16:16.386Z,108.63
2022-12-19T05:17:19.743Z,106.90
2022-12-19T05:18:25.815Z,103.52
2022-12-19T05:19:32.315Z,99.61
2022-12-19T05:20:38.117Z,98.54
2022-12-19T05:21:46.867Z,101.84
2022-12-19T05:22:50.186Z,102.68
2022-12-19T05:23:56.104Z,107.03
2022-12-19T05:24:59.389Z,101.75
2022-12-19T05:26:08.795Z,100.19
2022-12-19T05:27:12.098Z,99.00
2022-12-19T05:28:19.697Z,102.36
2022-12-19T05:29:23.337Z,100.50
2022-12-19T05:30:29.250Z,100.86
2022-12-19T05:31:33.507Z,96.62
2022-12-19T05:32:39.444Z,98.85
2022-12-19T05:33:43.947Z,100.25
2022-12-19T05:34:50.004Z,101.63
2022-12-19T05:35:53.318Z,103.35
2022-12-19T05:37:03.754Z,104.50
2022-12-19T05:38:07.396Z,106.30
2022-12-19T05:39:13.772Z,104.36
2022-12-19T05:40:17.220Z,104.64
2022-12-19T05:41:25.638Z,108.48
2022-12-19T05:42:29.736Z,106.91
2022-12-19T05:43:35.675Z,103.00
2022-12-19T05:44:38.977Z,103.64
2022-12-19T05:45:44.996Z,105.18
2022-12-19T05:46:48.468Z,105.46
2022-12-19T05:47:59.966Z,102.94
2022-12-19T05:49:04.721Z,104.93
2022-12-19T05:50:12.884Z,108.52
2022-12-19T05:51:17.020Z,107.66
2022-12-19T05:52:25.609Z,104.70
2022-12-19T05:53:30.524Z,105.09
2022-12-19T05:54:36.563Z,104.58
2022-12-19T05:55:39.918Z,106.98
2022-12-19T05:56:45.924Z,105.78
2022-12-19T05:57:49.462Z,101.40
2022-12-19T05:58:56.216Z,100.41
2022-12-19T06:00:00.017Z,103.24
2022-12-19T06:01:07.560Z,105.95
2022-12-19T06:02:12.759Z,105.75
2022-12-19T06:03:18.894Z,100.94
2022-12-19T06:04:23.197Z,101.16
2022-12-19T06:05:29.137Z,97.72
2022-12-19T06:06:34.996Z,101.99
2022-12-19T06:07:42.565Z,101.50
2022-12-19T06:08:49.404Z,96.75
2022-12-19T06:09:53.574Z,99.25
2022-12-19T06:11:02.797Z,99.81
2022-12-19T06:12:07.197Z,98.71
2022-12-19T06:13:13.394Z,96.01
2022-12-19T06:14:19.650Z,94.86
2022-12-19T06:15:23.771Z,96.23
2022-12-19T06:16:29.764Z,95.00
2022-12-19T06:17:33.219Z,92.73
2022-12-19T06:18:42.990Z,92.50
2022-12-19T06:19:48.270Z,95.88
2022-12-19T06:21:01.569Z,95.13
2022-12-19T06:22:05.018Z,92.47
2022-12-19T06:23:13.592Z,90.69
2022-12-19T06:24:17.575Z,94.27
2022-12-19T06:25:25.822Z,95.13
2022-12-19T06:26:31.472Z,97.48
2022-12-19T06:27:37.817Z,94.90
2022-12-19T06:28:41.167Z,93.95
2022-12-19T06:29:47.383Z,97.24
2022-12-19T06:30:50.941Z,92.57
2022-12-19T06:31:57.812Z,92.92
2022-12-19T06:33:01.349Z,97.92
2022-12-19T06:34:07.563Z,97.12
2022-12-19T06:35:11.561Z,99.12
2022-12-19T06:36:25.445Z,101.69
2022-12-19T06:37:29.689Z,98.81
2022-12-19T06:38:38.879Z,103.83
2022-12-19T06:39:42.230Z,106.68
2022-12-19T06:41:01.261Z,111.98
2022-12-19T06:42:20.308Z,117.55
2022-12-19T06:43:29.565Z,122.09
2022-12-19T06:44:34.114Z,114.73
2022-12-19T06:45:40.149Z,119.00
2022-12-19T06:46:44.743Z,116.03
2022-12-19T06:47:50.689Z,111.53
2022-12-19T06:48:58.864Z,108.65
2022-12-19T06:50:04.987Z,107.09
2022-12-19T06:51:08.783Z,108.73
2022-12-19T06:52:15.647Z,110.81
2022-12-19T06:53:21.812Z,111.97
2022-12-19T06:54:31.709Z,107.15
2022-12-19T06:55:37.559Z,109.91
2022-12-19T06:56:46.582Z,109.43
2022-12-19T06:57:49.901Z,104.78
2022-12-19T06:58:57.064Z,104.56
2022-12-19T07:00:03.897Z,106.08
2022-12-19T07:01:07.419Z,102.12
2022-12-19T07:02:31.550Z,106.68
2022-12-19T07:03:41.567Z,107.08
2022-12-19T07:04:54.652Z,109.16
2022-12-19T07:05:58.941Z,111.45
2022-12-19T07:07:05.167Z,109.48
2022-12-19T07:08:14.071Z,111.42
2022-12-19T07:09:17.829Z,109.67
2022-12-19T07:10:26.586Z,105.06
2022-12-19T07:11:30.782Z,102.75
2022-12-19T07:12:36.681Z,106.26
2022-12-19T07:13:40.110Z,103.75
2022-12-19T07:14:51.701Z,106.89
2022-12-19T07:16:07.291Z,107.17
2022-12-19T07:17:16.553Z,111.83
2022-12-19T07:18:20.045Z,109.83
2022-12-19T07:19:29.160Z,109.34
2022-12-19T07:20:44.877Z,104.90
2022-12-19T07:21:52.469Z,102.33
2022-12-19T07:22:56.918Z,101.64
2022-12-19T07:24:04.289Z,101.19
2022-12-19T07:25:10.054Z,101.23
2022-12-19T07:26:18.655Z,99.51
2022-12-19T07:27:28.563Z,101.73
2022-12-19T07:28:44.725Z,97.04
2022-12-19T07:29:50.688Z,98.30
2022-12-19T07:30:54.311Z,101.06
2022-12-19T07:32:00.398Z,100.92
2022-12-19T07:33:08.916Z,103.51
2022-12-19T07:34:19.259Z,104.66
2022-12-19T07:35:24.616Z,103.53
2022-12-19T07:36:30.884Z,103.53
2022-12-19T07:37:36.967Z,103.84
2022-12-19T07:38:40.294Z,104.57
2022-12-19T07:39:47.145Z,102.19
2022-12-19T07:40:53.311Z,107.59
2022-12-19T07:42:02.180Z,110.78
2022-12-19T07:43:17.596Z,108.80
2022-12-19T07:44:23.785Z,110.11
2022-12-19T07:45:31.081Z,106.48
2022-12-19T07:46:37.211Z,107.91
2022-12-19T07:47:40.589Z,106.76
2022-12-19T07:48:46.763Z,106.27
2022-12-19T07:49:50.272Z,111.07
2022-12-19T07:50:57.507Z,107.83
2022-12-19T07:52:03.931Z,108.44
2022-12-19T07:53:09.932Z,110.48
2022-12-19T07:54:18.045Z,109.03
2022-12-19T07:55:24.199Z,106.48
2022-12-19T07:56:28.987Z,107.49
2022-12-19T07:57:37.659Z,104.21
2022-12-19T07:58:41.116Z,104.23
2022-12-19T07:59:47.289Z,102.76
2022-12-19T08:00:58.770Z,101.00
2022-12-19T08:02:03.561Z,102.31
2022-12-19T08:03:09.723Z,102.43
2022-12-19T08:04:13.936Z,100.55
2022-12-19T08:05:20.470Z,102.01
2022-12-19T08:06:24.912Z,100.05
2022-12-19T08:07:31.727Z,98.48
2022-12-19T08:08:38.586Z,98.49
2022-12-19T08:09:44.496Z,100.52
2022-12-19T08:10:47.860Z,101.53
2022-12-19T08:11:53.688Z,100.00
2022-12-19T08:13:03.073Z,104.74
2022-12-19T08:14:06.542Z,110.10
2022-12-19T08:15:13.704Z,113.04
2022-12-19T08:16:19.810Z,115.24
2022-12-19T08:17:26.519Z,111.51
2022-12-19T08:18:33.494Z,109.56
2022-12-19T08:19:39.536Z,107.93
2022-12-19T08:20:49.523Z,106.73
2022-12-19T08:21:55.537Z,105.98
2022-12-19T08:23:01.574Z,106.67
2022-12-19T08:24:07.161Z,105.77
2022-12-19T08:25:13.661Z,103.31
2022-12-19T08:26:25.576Z,101.43
2022-12-19T08:27:31.828Z,96.63
2022-12-19T08:28:40.925Z,98.71
2022-12-19T08:29:48.158Z,97.59
2022-12-19T08:30:54.368Z,98.92
2022-12-19T08:32:00.453Z,98.67
2022-12-19T08:33:07.026Z,110.31
2022-12-19T08:34:10.630Z,113.59
2022-12-19T08:35:17.560Z,117.00
2022-12-19T08:36:21.998Z,118.83
2022-12-19T08:37:29.924Z,113.10
2022-12-19T08:38:33.261Z,107.30
2022-12-19T08:39:39.367Z,105.18
2022-12-19T08:40:47.661Z,102.86
2022-12-19T08:41:53.723Z,98.66
2022-12-19T08:42:58.282Z,100.25
2022-12-19T08:44:07.358Z,102.32
2022-12-19T08:45:13.914Z,101.73
2022-12-19T08:46:21.808Z,96.89
2022-12-19T08:47:27.967Z,95.25
2022-12-19T08:48:36.156Z,96.79
2022-12-19T08:49:42.424Z,104.61
2022-12-19T08:50:54.626Z,107.31
2022-12-19T08:52:01.581Z,101.83
2022-12-19T08:53:08.366Z,100.87
2022-12-19T08:54:15.548Z,100.59
2022-12-19T08:55:21.672Z,99.07
2022-12-19T08:56:27.773Z,96.99
2022-12-19T08:57:34.741Z,97.25
2022-12-19T08:58:40.712Z,99.24
2022-12-19T08:59:51.420Z,97.54
2022-12-19T09:01:05.263Z,102.02
2022-12-19T09:02:15.289Z,100.73
2022-12-19T09:03:22.710Z,104.39
2022-12-19T09:06:01.889Z,100.76
2022-12-19T09:06:07.095Z,101.67
2022-12-19T09:07:16.217Z,94.87
2022-12-19T09:08:23.168Z,92.20
2022-12-19T09:09:29.569Z,91.16
2022-12-19T09:10:38.649Z,94.40
2022-12-19T09:11:48.141Z,92.56
2022-12-19T09:12:58.039Z,98.12
2022-12-19T09:14:05.312Z,95.13
2022-12-19T09:15:14.385Z,96.18
2022-12-19T09:16:24.101Z,97.29
2022-12-19T09:17:31.422Z,98.17
2022-12-19T09:18:39.858Z,94.18
2022-12-19T09:19:48.535Z,96.16
2022-12-19T09:20:57.920Z,95.35
2022-12-19T09:22:04.088Z,95.85
2022-12-19T09:23:10.145Z,94.72
2022-12-19T09:24:16.120Z,97.14
2022-12-19T09:25:22.861Z,96.61
2022-12-19T09:26:33.683Z,96.75
2022-12-19T09:28:17.390Z,96.54
2022-12-19T09:29:21.109Z,97.99
2022-12-19T09:30:32.080Z,95.63
2022-12-19T09:31:40.552Z,95.44
2022-12-19T09:32:48.109Z,93.76
2022-12-19T09:33:55.026Z,95.08
2022-12-19T09:35:00.948Z,93.34
2022-12-19T09:36:11.849Z,92.45
2022-12-19T09:37:18.110Z,92.30
2022-12-19T09:38:23.549Z,95.39
2022-12-19T09:39:29.531Z,99.57
2022-12-19T09:40:58.219Z,100.22
2022-12-19T09:42:59.342Z,126.03
2022-12-19T09:44:26.377Z,126.73
2022-12-19T09:45:55.751Z,130.49
2022-12-19T09:47:06.446Z,121.08
2022-12-19T09:48:23.811Z,115.99
2022-12-19T09:49:41.647Z,111.17
2022-12-19T09:51:10.400Z,111.40
2022-12-19T09:52:25.005Z,116.93
2022-12-19T09:53:54.288Z,114.45
2022-12-19T09:55:16.822Z,116.88
2022-12-19T09:56:29.174Z,121.85
2022-12-19T09:57:47.448Z,129.38
2022-12-19T09:59:07.855Z,122.99
2022-12-19T10:00:21.674Z,119.73
2022-12-19T10:01:42.452Z,118.44
2022-12-19T10:02:59.578Z,111.57
2022-12-19T10:04:18.644Z,110.43
2022-12-19T10:06:24.927Z,109.98
2022-12-19T10:07:18.250Z,109.33
2022-12-19T10:08:47.691Z,108.74
2022-12-19T10:12:34.499Z,101.75
2022-12-19T10:12:45.179Z,104.20
2022-12-19T10:13:37.364Z,100.79
2022-12-19T10:15:03.398Z,99.89
2022-12-19T10:16:22.523Z,97.69
2022-12-19T10:18:01.130Z,94.85
2022-12-19T10:19:12.293Z,96.44
2022-12-19T10:20:32.785Z,93.02
2022-12-19T10:22:17.805Z,94.33
2022-12-19T10:24:19.035Z,91.57
2022-12-19T10:25:57.702Z,93.70
2022-12-19T10:27:16.346Z,90.48
2022-12-19T10:28:58.622Z,89.59
2022-12-19T10:30:17.309Z,88.93
2022-12-19T10:31:35.991Z,88.91
2022-12-19T10:33:07.085Z,89.09
2022-12-19T10:34:25.394Z,90.72
2022-12-19T10:35:37.723Z,89.98
2022-12-19T10:38:34.329Z,92.60
2022-12-19T10:40:00.650Z,96.26
2022-12-19T10:41:19.881Z,94.11
2022-12-19T10:42:39.577Z,96.30
2022-12-19T10:44:06.108Z,94.89
2022-12-19T10:45:19.689Z,91.74
2022-12-19T10:46:41.136Z,95.58
2022-12-19T10:47:50.887Z,98.22
2022-12-19T10:48:57.914Z,101.14
2022-12-19T10:50:09.222Z,108.69
2022-12-19T10:51:25.936Z,110.67
2022-12-19T10:52:57.002Z,109.98
2022-12-19T10:54:04.349Z,111.41
2022-12-19T10:55:40.782Z,105.84
2022-12-19T10:56:46.933Z,112.87
2022-12-19T10:57:50.200Z,114.60
2022-12-19T10:58:59.133Z,122.18
2022-12-19T11:00:20.385Z,121.89
2022-12-19T11:01:30.362Z,117.18
2022-12-19T11:02:51.966Z,116.38
2022-12-19T11:04:25.357Z,113.55
2022-12-19T11:05:47.366Z,110.93
2022-12-19T11:07:20.762Z,111.99
2022-12-19T11:08:31.053Z,114.76
2022-12-19T11:09:46.775Z,114.63
2022-12-19T11:13:15.490Z,110.12
2022-12-19T11:17:15.807Z,108.32
2022-12-19T11:18:47.125Z,108.92
2022-12-19T11:20:24.717Z,108.18
2022-12-19T11:27:46.450Z,109.19
2022-12-19T11:28:15.652Z,112.74
2022-12-19T11:29:25.414Z,109.58
2022-12-19T11:29:30.352Z,111.45
2022-12-19T11:29:37.047Z,107.17
2022-12-19T11:30:46.255Z,110.02
2022-12-19T11:30:47.658Z,108.42
2022-12-19T11:31:27.998Z,110.66
2022-12-19T11:31:46.584Z,107.99
2022-12-19T11:32:42.298Z,110.56
2022-12-19T11:33:50.764Z,109.26
2022-12-19T11:35:05.489Z,106.26
2022-12-19T11:36:31.856Z,109.16
2022-12-19T11:37:53.886Z,111.27
2022-12-19T11:39:03.408Z,109.30
2022-12-19T11:40:22.360Z,110.28
2022-12-19T11:41:43.943Z,110.47
2022-12-19T11:43:42.089Z,109.62
2022-12-19T11:44:39.310Z,110.17
2022-12-19T11:46:01.549Z,110.87
2022-12-19T11:47:27.899Z,111.89
2022-12-19T11:48:44.256Z,114.14
2022-12-19T11:50:06.302Z,117.85
2022-12-19T11:51:30.137Z,119.49
2022-12-19T11:53:03.964Z,121.11
2022-12-19T11:54:23.677Z,118.17
2022-12-19T11:55:45.168Z,116.57
2022-12-19T11:56:52.259Z,121.30
2022-12-19T11:57:58.917Z,114.68
2022-12-19T11:59:18.173Z,112.17
2022-12-19T12:00:28.840Z,114.32
2022-12-19T12:02:02.628Z,113.17
2022-12-19T12:03:49.534Z,116.48
2022-12-19T12:05:44.914Z,113.45
2022-12-19T12:06:57.785Z,116.65
2022-12-19T12:10:14.470Z,113.15
2022-12-19T12:13:43.574Z,116.18
2022-12-19T12:22:35.653Z,117.68
2022-12-19T12:22:42.147Z,114.71
2022-12-19T12:26:51.559Z,117.24
2022-12-19T12:30:46.866Z,116.43
2022-12-19T12:31:10.063Z,118.84
2022-12-19T12:31:14.691Z,119.52
2022-12-19T12:31:17.766Z,118.56
2022-12-19T12:31:44.385Z,119.93
2022-12-19T12:31:44.393Z,124.06
2022-12-19T12:32:03.005Z,124.20
2022-12-19T12:32:03.523Z,114.70
2022-12-19T12:35:13.681Z,121.79
2022-12-19T12:35:40.781Z,120.81
2022-12-19T12:39:07.212Z,124.83
2022-12-19T12:41:01.470Z,126.28
2022-12-19T12:42:33.796Z,129.50
2022-12-19T12:44:07.996Z,134.56
2022-12-19T12:45:26.213Z,135.66
2022-12-19T12:46:42.236Z,139.02
2022-12-19T12:47:55.050Z,139.34
2022-12-19T12:49:04.823Z,137.67
2022-12-19T12:50:20.236Z,137.75
2022-12-19T12:51:30.100Z,143.02
2022-12-19T12:52:46.161Z,145.26
2022-12-19T12:54:07.881Z,147.17
2022-12-19T12:55:27.660Z,142.95
2022-12-19T12:56:35.626Z,156.29
2022-12-19T12:57:42.268Z,157.91
2022-12-19T12:59:24.140Z,148.72
2022-12-19T13:00:33.997Z,148.72
2022-12-19T13:01:41.424Z,145.48
2022-12-19T13:02:53.620Z,149.03
2022-12-19T13:04:05.168Z,147.10
2022-12-19T13:05:39.947Z,148.11
2022-12-19T13:07:30.334Z,146.78
2022-12-19T13:08:50.640Z,150.99
2022-12-19T13:10:20.055Z,147.71
2022-12-19T13:11:56.302Z,150.19
2022-12-19T13:13:14.972Z,149.18
2022-12-19T13:14:51.827Z,153.17
2022-12-19T13:15:57.874Z,151.32
2022-12-19T13:17:05.745Z,152.39
2022-12-19T13:18:42.353Z,161.39
2022-12-19T13:19:56.891Z,158.83
2022-12-19T13:21:06.851Z,162.36
2022-12-19T13:22:42.539Z,165.84
2022-12-19T13:23:52.550Z,166.48
2022-12-19T13:25:01.539Z,168.17
2022-12-19T13:26:26.208Z,164.62
2022-12-19T13:27:42.825Z,160.86
2022-12-19T13:28:47.103Z,149.60
2022-12-19T13:30:08.214Z,152.57
2022-12-19T13:31:26.473Z,157.14
2022-12-19T13:32:58.078Z,165.46
2022-12-19T13:34:22.377Z,158.76
2022-12-19T13:37:42.407Z,161.35
2022-12-19T13:39:59.352Z,155.99
2022-12-19T13:39:59.625Z,148.92
2022-12-19T13:40:37.375Z,147.87
2022-12-19T13:41:58.430Z,150.15
2022-12-19T13:43:33.635Z,159.37
2022-12-19T13:44:45.404Z,172.46
2022-12-19T13:45:57.367Z,167.54
2022-12-19T13:47:03.562Z,170.26
2022-12-19T13:48:23.898Z,186.14
2022-12-19T13:49:36.592Z,193.23
2022-12-19T13:50:43.588Z,188.76
2022-12-19T13:51:57.225Z,177.95
2022-12-19T13:53:03.777Z,174.86
2022-12-19T13:54:29.168Z,174.44
2022-12-19T13:55:43.032Z,167.32
2022-12-19T13:56:49.839Z,163.35
2022-12-19T13:58:00.604Z,164.50
2022-12-19T13:59:09.025Z,162.98
2022-12-19T14:00:24.559Z,168.40
2022-12-19T14:01:32.194Z,163.46
2022-12-19T14:02:51.850Z,163.40
2022-12-19T14:04:02.649Z,163.85
2022-12-19T14:06:14.308Z,166.75
2022-12-19T14:07:04.301Z,167.92
2022-12-19T14:08:18.218Z,164.95
2022-12-19T14:11:28.720Z,171.80
2022-12-19T14:11:33.971Z,190.21
2022-12-19T14:13:43.271Z,192.97
2022-12-19T14:14:33.416Z,194.62
2022-12-19T14:15:42.571Z,189.00
2022-12-19T14:16:49.953Z,190.68
2022-12-19T14:17:56.073Z,185.98
2022-12-19T14:19:30.189Z,184.66
2022-12-19T14:22:11.380Z,181.31
2022-12-19T14:22:20.713Z,178.83
2022-12-19T14:23:42.889Z,177.13
2022-12-19T14:25:52.368Z,178.71
2022-12-19T14:28:23.444Z,180.37
2022-12-19T14:28:24.713Z,172.31
2022-12-19T14:30:28.908Z,179.05
2022-12-19T14:31:20.592Z,177.58
2022-12-19T14:33:44.566Z,183.36
2022-12-19T14:34:27.088Z,184.01
2022-12-19T14:36:06.398Z,187.34
2022-12-19T14:37:03.533Z,198.94
2022-12-19T14:39:20.703Z,200.60
2022-12-19T14:39:44.129Z,212.71
2022-12-19T14:41:07.387Z,197.20
2022-12-19T14:43:39.465Z,190.06
2022-12-19T14:52:11.526Z,169.89
2022-12-19T14:52:50.878Z,182.85
2022-12-19T14:53:52.730Z,193.20
2022-12-19T14:54:01.422Z,195.22
2022-12-19T14:54:23.043Z,204.57
2022-12-19T14:54:25.523Z,197.47
2022-12-19T14:54:37.733Z,206.25
2022-12-19T14:56:16.054Z,201.49
2022-12-19T14:57:03.914Z,200.44
2022-12-19T14:58:53.315Z,188.92
2022-12-19T14:59:46.362Z,183.34
2022-12-19T15:01:09.286Z,182.41
2022-12-19T15:02:30.642Z,179.54
2022-12-19T15:04:50.555Z,182.45
2022-12-19T15:05:24.276Z,180.59
2022-12-19T15:07:07.863Z,185.28
2022-12-19T15:08:04.457Z,182.14
2022-12-19T15:10:58.387Z,182.27
2022-12-19T15:11:05.268Z,178.43
2022-12-19T15:14:48.564Z,206.77
2022-12-19T15:14:56.319Z,218.36
2022-12-19T15:15:46.303Z,218.65
2022-12-19T15:17:06.162Z,221.49
2022-12-19T15:18:28.897Z,225.29
2022-12-19T15:19:35.375Z,217.02
2022-12-19T15:20:42.131Z,204.60
2022-12-19T15:21:49.508Z,197.29
2022-12-19T15:22:55.582Z,176.76
2022-12-19T15:24:02.526Z,175.71
2022-12-19T15:25:17.516Z,195.30
2022-12-19T15:26:49.133Z,203.15
2022-12-19T15:27:58.330Z,191.87
2022-12-19T15:29:19.891Z,197.64
2022-12-19T15:30:35.000Z,246.86
2022-12-19T15:31:44.199Z,238.32
2022-12-19T15:32:51.499Z,266.28
2022-12-19T15:35:22.769Z,232.83
2022-12-19T15:36:26.371Z,239.93
2022-12-19T15:37:32.448Z,246.01
2022-12-19T15:38:35.995Z,232.49
2022-12-19T15:39:42.368Z,248.87
2022-12-19T15:40:49.576Z,266.25
2022-12-19T15:41:59.363Z,283.96
2022-12-19T15:43:23.765Z,287.58
2022-12-19T15:44:39.657Z,285.54
2022-12-19T15:45:45.921Z,290.21
2022-12-19T15:46:52.919Z,283.64